Time;durP1;ratioP1;P1;durP2;ratioP2;P2;SDS_P1;SDS_P2;PMS_P1;PMS_P2;Temp;Humidity;BMP_temperature;BMP_pressure;BME280_temperature;BME280_humidity;BME280_pressure;Samples;Min_cycle;Max_cycle;Signal;HPM_P1;HPM_P2
2021/12/14 00:02:40;;;;;;;0.40;0.40;;;9.20;99.90;;;;;;5034841;28;20556;-69
2021/12/14 00:05:29;;;;;;;0.40;0.40;;;9.20;99.90;;;;;;5034553;28;21025;-68
2021/12/14 00:08:18;;;;;;;0.40;0.40;;;9.20;99.90;;;;;;5034385;28;21003;-70
2021/12/14 00:11:28;;;;;;;0.50;0.50;;;9.20;99.90;;;;;;5034856;28;20469;-68
2021/12/14 00:15:01;;;;;;;0.40;0.40;;;9.20;99.90;;;;;;5016566;28;20949;-69
2021/12/14 00:17:39;;;;;;;0.40;0.40;;;9.10;99.90;;;;;;5015752;28;20945;-69
2021/12/14 00:20:30;;;;;;;0.40;0.40;;;9.20;99.90;;;;;;5014411;28;20418;-69
2021/12/14 00:26:27;;;;;;;0.40;0.40;;;9.20;99.90;;;;;;5015207;28;20414;-69
2021/12/14 00:29:16;;;;;;;0.40;0.40;;;9.20;99.90;;;;;;5015745;28;20484;-67
2021/12/14 00:32:08;;;;;;;0.40;0.40;;;9.20;99.90;;;;;;5014661;28;20465;-69
2021/12/14 00:34:59;;;;;;;0.40;0.40;;;9.20;99.90;;;;;;5015971;28;20930;-69
2021/12/14 00:37:48;;;;;;;0.40;0.40;;;9.20;99.90;;;;;;5014018;28;20426;-68
2021/12/14 00:40:41;;;;;;;0.40;0.40;;;9.20;99.90;;;;;;5014055;28;20418;-69
2021/12/14 00:43:28;;;;;;;0.40;0.40;;;9.20;99.90;;;;;;5015644;28;20517;-69
2021/12/14 00:46:17;;;;;;;0.40;0.40;;;9.20;99.90;;;;;;5015196;28;20430;-68
2021/12/14 00:49:05;;;;;;;0.40;0.40;;;9.20;99.90;;;;;;5015689;28;20454;-70
2021/12/14 00:51:54;;;;;;;0.40;0.40;;;9.20;99.90;;;;;;5014892;28;20477;-69
2021/12/14 00:54:41;;;;;;;0.40;0.40;;;9.10;99.90;;;;;;5013157;28;20515;-68
2021/12/14 00:57:31;;;;;;;0.50;0.50;;;9.20;99.90;;;;;;5013906;28;20426;-69
2021/12/14 01:00:22;;;;;;;0.40;0.40;;;9.20;99.90;;;;;;5015744;28;20457;-69
2021/12/14 01:03:09;;;;;;;0.40;0.40;;;9.20;99.90;;;;;;5015556;28;20577;-70
2021/12/14 01:05:58;;;;;;;0.40;0.40;;;9.20;99.90;;;;;;5015313;28;20934;-69
2021/12/14 01:08:48;;;;;;;0.50;0.50;;;9.20;99.90;;;;;;5014281;28;20465;-69
2021/12/14 01:11:42;;;;;;;0.40;0.40;;;9.20;99.90;;;;;;5018900;28;20472;-69
2021/12/14 01:14:40;;;;;;;0.40;0.40;;;9.30;99.90;;;;;;5033181;28;20425;-69
2021/12/14 01:17:41;;;;;;;0.40;0.40;;;9.20;99.90;;;;;;5034562;28;20437;-69
2021/12/14 01:20:32;;;;;;;0.40;0.40;;;9.10;99.90;;;;;;5031802;28;20424;-71
2021/12/14 01:23:29;;;;;;;0.40;0.40;;;9.20;99.90;;;;;;5033746;28;20516;-70
2021/12/14 01:26:19;;;;;;;0.40;0.40;;;9.20;99.90;;;;;;5033398;28;21013;-73
2021/12/14 01:29:09;;;;;;;0.40;0.40;;;9.20;99.90;;;;;;5033135;28;20467;-69
2021/12/14 01:32:00;;;;;;;0.40;0.40;;;9.20;99.90;;;;;;5033203;28;20514;-71
2021/12/14 01:34:47;;;;;;;0.43;0.43;;;9.20;99.90;;;;;;5032984;28;20516;-69
2021/12/14 01:37:41;;;;;;;0.40;0.40;;;9.10;99.90;;;;;;5033236;28;20425;-71
2021/12/14 01:43:32;;;;;;;0.40;0.40;;;9.10;99.90;;;;;;5089931;27;20524;-71
2021/12/14 01:46:22;;;;;;;0.40;0.40;;;9.20;99.90;;;;;;5100802;28;20463;-70
2021/12/14 01:49:12;;;;;;;0.40;0.40;;;9.10;99.90;;;;;;5119626;28;20498;-69
2021/12/14 01:52:04;;;;;;;0.40;0.40;;;9.10;99.90;;;;;;5129258;28;20530;-69
2021/12/14 01:54:55;;;;;;;0.40;0.40;;;9.10;99.90;;;;;;5149717;27;20448;-71
2021/12/14 01:57:43;;;;;;;0.40;0.40;;;9.10;99.90;;;;;;5136536;22;20519;-67
2021/12/14 02:00:38;;;;;;;0.40;0.40;;;9.10;99.90;;;;;;5109656;28;20410;-67
2021/12/14 02:03:31;;;;;;;0.40;0.40;;;9.10;99.90;;;;;;5110164;28;20479;-67
2021/12/14 02:06:23;;;;;;;0.40;0.40;;;9.20;99.90;;;;;;5109134;28;20437;-67
2021/12/14 02:09:13;;;;;;;0.40;0.40;;;9.10;99.90;;;;;;5109127;28;20425;-67
2021/12/14 02:12:08;;;;;;;0.40;0.40;;;9.10;99.90;;;;;;5109506;28;20617;-67
2021/12/14 02:15:05;;;;;;;0.40;0.40;;;9.10;99.90;;;;;;5110855;28;20769;-67
2021/12/14 02:17:55;;;;;;;0.40;0.40;;;9.10;99.90;;;;;;5109222;28;20445;-67
2021/12/14 02:20:47;;;;;;;0.40;0.40;;;9.10;99.90;;;;;;5109254;28;20464;-67
2021/12/14 02:23:37;;;;;;;0.40;0.40;;;9.10;99.90;;;;;;5110315;28;20901;-67
2021/12/14 02:26:29;;;;;;;0.40;0.40;;;9.10;99.90;;;;;;5109433;28;20520;-67
2021/12/14 02:29:23;;;;;;;0.40;0.40;;;9.10;99.90;;;;;;5105944;28;20438;-68
2021/12/14 02:32:13;;;;;;;0.40;0.40;;;9.10;99.90;;;;;;5089933;28;20489;-68
2021/12/14 02:35:03;;;;;;;0.40;0.40;;;9.10;99.90;;;;;;5090443;28;20423;-68
2021/12/14 02:37:55;;;;;;;0.40;0.40;;;9.10;99.90;;;;;;5089904;28;20442;-68
2021/12/14 02:40:54;;;;;;;0.40;0.40;;;9.20;99.90;;;;;;5089948;28;20935;-68
2021/12/14 02:43:46;;;;;;;0.40;0.40;;;9.20;99.90;;;;;;5089154;28;20806;-68
2021/12/14 02:46:36;;;;;;;0.40;0.40;;;9.10;99.90;;;;;;5089908;28;20504;-68
2021/12/14 02:49:27;;;;;;;0.40;0.40;;;9.10;99.90;;;;;;5089777;28;20426;-68
2021/12/14 02:52:20;;;;;;;0.40;0.40;;;9.10;99.90;;;;;;5089860;28;20470;-68
2021/12/14 02:55:12;;;;;;;0.40;0.40;;;9.00;99.90;;;;;;5075119;28;20449;-68
2021/12/14 02:58:05;;;;;;;0.40;0.40;;;9.00;99.90;;;;;;5075823;28;20442;-68
2021/12/14 03:00:55;;;;;;;0.40;0.40;;;9.00;99.90;;;;;;5075889;28;20481;-68
2021/12/14 03:03:42;;;;;;;0.40;0.40;;;8.90;99.90;;;;;;5076197;28;20502;-68
2021/12/14 03:06:32;;;;;;;0.40;0.40;;;9.00;99.90;;;;;;5076399;28;20463;-68
2021/12/14 03:09:36;;;;;;;0.40;0.40;;;9.00;99.90;;;;;;5076430;28;20451;-68
2021/12/14 03:12:30;;;;;;;0.40;0.40;;;9.10;99.90;;;;;;5075803;28;20470;-68
2021/12/14 03:15:21;;;;;;;0.40;0.40;;;9.00;99.90;;;;;;5074363;28;20443;-68
2021/12/14 03:18:11;;;;;;;0.40;0.40;;;9.00;99.90;;;;;;5074032;28;21012;-68
2021/12/14 03:21:01;;;;;;;0.40;0.40;;;9.00;99.90;;;;;;5073691;28;20927;-68
2021/12/14 03:23:50;;;;;;;0.40;0.40;;;9.00;99.90;;;;;;5074095;28;20465;-68
2021/12/14 03:26:42;;;;;;;0.40;0.40;;;9.10;99.90;;;;;;5073191;28;20458;-68
2021/12/14 03:29:32;;;;;;;0.40;0.40;;;9.00;99.90;;;;;;5072578;28;20419;-68
2021/12/14 03:32:19;;;;;;;0.40;0.40;;;9.00;99.90;;;;;;5073155;28;20511;-67
2021/12/14 03:35:07;;;;;;;0.40;0.40;;;9.00;99.90;;;;;;5073282;28;20424;-67
2021/12/14 03:38:07;;;;;;;0.40;0.40;;;9.00;99.90;;;;;;5072358;28;20682;-68
2021/12/14 03:41:03;;;;;;;0.40;0.40;;;9.00;99.90;;;;;;5072674;28;20474;-67
2021/12/14 03:43:57;;;;;;;0.40;0.40;;;9.00;99.90;;;;;;5072617;28;20415;-67
2021/12/14 03:46:50;;;;;;;0.40;0.40;;;9.00;99.90;;;;;;5073161;28;20443;-67
2021/12/14 03:49:42;;;;;;;0.40;0.40;;;9.00;99.90;;;;;;5072996;28;20497;-68
2021/12/14 03:52:32;;;;;;;0.40;0.40;;;9.00;99.90;;;;;;5072531;28;20459;-67
2021/12/14 03:55:22;;;;;;;0.40;0.40;;;9.00;99.90;;;;;;5072165;28;20420;-67
2021/12/14 03:58:11;;;;;;;0.40;0.40;;;8.90;99.90;;;;;;5071731;28;20443;-67
2021/12/14 04:01:01;;;;;;;0.40;0.40;;;8.90;99.90;;;;;;5071473;28;20435;-67
2021/12/14 04:03:56;;;;;;;0.40;0.40;;;8.90;99.90;;;;;;5071934;28;20834;-67
2021/12/14 04:06:47;;;;;;;0.40;0.40;;;8.90;99.90;;;;;;5071716;28;20439;-68
2021/12/14 04:09:37;;;;;;;0.30;0.30;;;8.80;99.90;;;;;;5071954;28;20427;-68
2021/12/14 04:12:26;;;;;;;0.40;0.40;;;8.80;99.90;;;;;;5082412;28;20476;-68
2021/12/14 04:15:13;;;;;;;0.40;0.40;;;8.80;99.90;;;;;;5094013;28;20809;-68
2021/12/14 04:18:01;;;;;;;0.40;0.40;;;8.80;99.90;;;;;;5093244;28;20438;-68
2021/12/14 04:20:52;;;;;;;0.40;0.40;;;8.80;99.90;;;;;;5094848;28;20973;-67
2021/12/14 04:23:43;;;;;;;0.40;0.40;;;8.80;99.90;;;;;;5093286;28;20419;-68
2021/12/14 04:26:30;;;;;;;0.40;0.40;;;8.90;99.90;;;;;;5093062;28;20441;-68
2021/12/14 04:29:17;;;;;;;0.40;0.40;;;8.80;99.90;;;;;;5092250;28;20784;-68
2021/12/14 04:32:06;;;;;;;0.40;0.40;;;8.80;99.90;;;;;;5092748;28;20445;-67
2021/12/14 04:34:55;;;;;;;0.40;0.40;;;8.80;99.90;;;;;;5092135;28;20444;-67
2021/12/14 04:37:44;;;;;;;0.40;0.40;;;8.80;99.90;;;;;;5092130;28;20805;-68
2021/12/14 04:51:55;;;;;;;0.40;0.40;;;8.70;99.90;;;;;;5092571;28;20488;-67
2021/12/14 04:53:31;;;;;;;0.40;0.40;;;8.70;99.90;;;;;;5092319;28;20505;-68
2021/12/14 04:56:22;;;;;;;0.40;0.40;;;8.50;99.90;;;;;;5092227;28;20470;-68
2021/12/14 04:59:12;;;;;;;0.40;0.40;;;8.60;99.90;;;;;;5091786;28;20437;-67
2021/12/14 05:02:03;;;;;;;0.40;0.40;;;8.60;99.90;;;;;;5092687;28;20929;-67
2021/12/14 05:04:53;;;;;;;0.40;0.40;;;8.50;99.90;;;;;;5091936;28;20499;-68
2021/12/14 05:07:59;;;;;;;0.40;0.40;;;8.50;99.90;;;;;;5092398;28;20958;-67
2021/12/14 05:10:54;;;;;;;0.40;0.40;;;8.50;99.90;;;;;;5092469;28;20424;-67
2021/12/14 05:13:44;;;;;;;0.40;0.40;;;8.50;99.90;;;;;;5072556;28;20455;-68
2021/12/14 05:16:32;;;;;;;0.40;0.40;;;8.60;99.90;;;;;;5071155;28;20447;-67
2021/12/14 05:19:23;;;;;;;0.40;0.40;;;8.50;99.90;;;;;;5071826;28;20546;-67
2021/12/14 05:22:13;;;;;;;0.40;0.40;;;8.60;99.90;;;;;;5071157;28;20451;-67
2021/12/14 05:25:06;;;;;;;0.40;0.40;;;8.50;99.90;;;;;;5071162;28;20415;-68
2021/12/14 05:27:58;;;;;;;0.40;0.40;;;8.60;99.90;;;;;;5072052;28;20447;-67
2021/12/14 05:30:48;;;;;;;0.40;0.40;;;8.60;99.90;;;;;;5071821;28;20943;-68
2021/12/14 05:33:36;;;;;;;1.40;1.33;;;8.60;99.90;;;;;;5071166;28;20458;-67
2021/12/14 05:36:24;;;;;;;0.40;0.40;;;8.70;99.90;;;;;;5071330;28;20971;-67
2021/12/14 05:39:36;;;;;;;0.40;0.40;;;8.60;99.90;;;;;;5071558;28;20432;-67
2021/12/14 05:45:30;;;;;;;0.40;0.40;;;8.60;99.90;;;;;;5072236;28;20430;-67
2021/12/14 05:48:20;;;;;;;0.40;0.40;;;8.60;99.90;;;;;;5071692;28;20423;-68
2021/12/14 05:51:10;;;;;;;0.40;0.40;;;8.60;99.90;;;;;;5071691;28;20424;-67
2021/12/14 05:53:57;;;;;;;0.40;0.40;;;8.60;99.90;;;;;;5071029;28;20830;-67
2021/12/14 05:56:44;;;;;;;0.40;0.40;;;8.60;99.90;;;;;;5071465;28;20455;-67
2021/12/14 05:59:34;;;;;;;0.40;0.40;;;8.60;99.90;;;;;;5071687;28;20415;-67
2021/12/14 06:02:23;;;;;;;0.40;0.40;;;8.60;99.90;;;;;;5071574;28;20415;-68
2021/12/14 06:05:13;;;;;;;0.40;0.40;;;8.60;99.90;;;;;;5071677;28;20427;-67
2021/12/14 06:08:01;;;;;;;0.40;0.40;;;8.90;99.90;;;;;;5071632;28;20455;-67
2021/12/14 06:10:48;;;;;;;0.40;0.40;;;8.60;99.90;;;;;;5071339;28;20988;-67
2021/12/14 06:13:39;;;;;;;0.40;0.40;;;8.70;99.90;;;;;;5072091;28;20485;-68
2021/12/14 06:16:28;;;;;;;0.40;0.40;;;8.60;99.90;;;;;;5072242;28;20475;-67
2021/12/14 06:19:20;;;;;;;0.40;0.40;;;8.60;99.90;;;;;;5072817;28;20426;-68
2021/12/14 06:22:10;;;;;;;0.40;0.40;;;8.60;99.90;;;;;;5072270;28;20470;-68
2021/12/14 06:25:00;;;;;;;0.40;0.40;;;8.60;99.90;;;;;;5073113;28;20958;-67
2021/12/14 06:27:48;;;;;;;0.40;0.40;;;8.60;99.90;;;;;;5072346;28;20446;-68
2021/12/14 06:30:41;;;;;;;0.40;0.40;;;8.50;99.90;;;;;;5086461;28;20453;-68
2021/12/14 06:33:29;;;;;;;0.40;0.40;;;8.60;99.90;;;;;;5093735;28;20551;-68
2021/12/14 06:36:41;;;;;;;0.40;0.40;;;8.60;99.90;;;;;;5092530;28;20427;-68
2021/12/14 06:39:27;;;;;;;0.40;0.40;;;8.50;99.90;;;;;;5090824;28;20423;-68
2021/12/14 06:42:15;;;;;;;0.40;0.40;;;8.50;99.90;;;;;;5084046;28;20481;-68
2021/12/14 06:45:09;;;;;;;0.40;0.40;;;8.60;99.90;;;;;;5076290;28;20475;-68
2021/12/14 06:48:04;;;;;;;0.40;0.40;;;8.50;99.90;;;;;;5092137;28;20474;-68
2021/12/14 06:50:55;;;;;;;0.40;0.40;;;8.40;99.90;;;;;;5095569;28;20426;-68
2021/12/14 06:53:49;;;;;;;0.40;0.40;;;8.50;99.90;;;;;;5078057;28;20462;-68
2021/12/14 06:56:36;;;;;;;0.40;0.40;;;8.40;99.90;;;;;;5074724;28;20833;-68
2021/12/14 06:59:24;;;;;;;0.40;0.40;;;8.50;99.90;;;;;;5092037;28;20427;-68
2021/12/14 07:02:12;;;;;;;0.40;0.40;;;8.50;99.90;;;;;;5095027;28;20845;-68
2021/12/14 07:04:59;;;;;;;0.40;0.40;;;8.60;99.90;;;;;;5086121;28;20423;-69
2021/12/14 07:07:46;;;;;;;0.40;0.40;;;8.50;99.90;;;;;;5075047;28;20451;-68
2021/12/14 07:10:36;;;;;;;0.40;0.40;;;8.70;99.90;;;;;;5074212;28;20453;-68
2021/12/14 07:13:33;;;;;;;0.40;0.40;;;8.60;99.90;;;;;;5093886;28;20454;-68
2021/12/14 07:16:29;;;;;;;0.40;0.40;;;8.60;99.90;;;;;;5096196;28;20438;-68
2021/12/14 07:19:16;;;;;;;0.40;0.40;;;8.70;99.90;;;;;;5095019;28;20426;-69
2021/12/14 07:22:04;;;;;;;0.40;0.40;;;8.60;99.90;;;;;;5088170;28;20459;-68
2021/12/14 07:24:59;;;;;;;0.40;0.40;;;8.60;99.90;;;;;;5080513;28;20429;-68
2021/12/14 07:27:48;;;;;;;0.40;0.40;;;8.50;99.90;;;;;;5082439;28;20439;-68
2021/12/14 07:30:38;;;;;;;0.40;0.40;;;8.50;99.90;;;;;;5094725;28;20969;-68
2021/12/14 07:33:28;;;;;;;0.40;0.40;;;8.60;99.90;;;;;;5088449;28;20470;-68
2021/12/14 07:36:22;;;;;;;0.40;0.40;;;8.40;99.90;;;;;;5113490;28;20460;-68
2021/12/14 07:39:12;;;;;;;0.40;0.40;;;8.50;99.90;;;;;;5107266;28;20438;-68
2021/12/14 07:42:00;;;;;;;0.40;0.40;;;8.40;99.90;;;;;;5074264;28;20450;-69
2021/12/14 07:44:49;;;;;;;0.40;0.40;;;8.50;99.90;;;;;;5107361;28;20470;-68
2021/12/14 07:47:36;;;;;;;0.40;0.40;;;8.50;99.90;;;;;;5094563;28;20480;-69
2021/12/14 07:50:41;;;;;;;0.40;0.40;;;8.60;99.90;;;;;;5114020;28;20830;-67
2021/12/14 07:53:35;;;;;;;0.47;0.47;;;8.50;99.90;;;;;;5116651;28;20461;-68
2021/12/14 07:56:30;;;;;;;1.70;1.40;;;8.50;99.90;;;;;;5122746;28;20460;-68
2021/12/14 07:59:22;;;;;;;0.40;0.40;;;8.40;99.90;;;;;;5104044;28;20434;-67
2021/12/14 08:02:15;;;;;;;0.77;0.77;;;8.50;99.90;;;;;;5093257;28;20442;-67
2021/12/14 08:05:17;;;;;;;0.40;0.40;;;8.40;99.90;;;;;;5121470;28;20425;-67
2021/12/14 08:08:15;;;;;;;0.40;0.40;;;8.40;99.90;;;;;;5096811;28;20424;-68
2021/12/14 08:11:28;;;;;;;0.40;0.40;;;8.40;99.90;;;;;;5088588;28;20431;-68
2021/12/14 08:14:23;;;;;;;0.50;0.50;;;8.30;99.90;;;;;;5090174;28;20506;-67
2021/12/14 08:17:11;;;;;;;0.40;0.40;;;8.40;99.90;;;;;;5099390;28;20461;-68
2021/12/14 08:19:58;;;;;;;0.40;0.40;;;8.40;99.90;;;;;;5086570;28;20855;-68
2021/12/14 08:22:45;;;;;;;0.40;0.40;;;8.50;99.90;;;;;;5099523;28;20458;-68
2021/12/14 08:25:32;;;;;;;0.40;0.40;;;8.40;99.90;;;;;;5101215;28;20422;-67
2021/12/14 08:28:21;;;;;;;0.40;0.40;;;8.30;99.90;;;;;;5100598;28;20509;-68
2021/12/14 08:31:08;;;;;;;0.40;0.40;;;8.40;99.90;;;;;;5098244;28;20485;-68
2021/12/14 08:33:58;;;;;;;0.43;0.43;;;8.40;99.90;;;;;;5111567;28;20554;-68
2021/12/14 08:36:49;;;;;;;0.40;0.40;;;8.40;99.90;;;;;;5086093;28;20604;-68
2021/12/14 08:39:43;;;;;;;0.40;0.40;;;8.30;99.90;;;;;;5096403;28;20464;-68
2021/12/14 08:42:39;;;;;;;0.40;0.40;;;8.30;99.90;;;;;;5082123;28;20425;-68
2021/12/14 08:45:28;;;;;;;0.60;0.60;;;8.30;99.90;;;;;;5115500;28;20429;-68
2021/12/14 08:48:22;;;;;;;0.40;0.40;;;8.30;99.90;;;;;;5086181;28;20431;-68
2021/12/14 08:51:16;;;;;;;0.50;0.50;;;8.30;99.90;;;;;;5114794;28;20468;-68
2021/12/14 08:54:06;;;;;;;0.40;0.40;;;8.40;99.90;;;;;;5111290;28;20804;-68
2021/12/14 08:56:58;;;;;;;0.50;0.50;;;8.30;99.90;;;;;;5082132;28;20465;-68
2021/12/14 08:59:48;;;;;;;0.40;0.40;;;8.40;99.90;;;;;;5111673;28;20422;-68
2021/12/14 09:02:35;;;;;;;2.50;2.00;;;8.40;99.90;;;;;;5078479;28;20544;-68
2021/12/14 09:05:26;;;;;;;0.40;0.40;;;8.40;99.90;;;;;;5111004;28;20460;-68
2021/12/14 09:08:15;;;;;;;0.40;0.40;;;8.50;99.90;;;;;;5110135;28;21048;-68
2021/12/14 09:11:04;;;;;;;0.40;0.40;;;8.70;99.90;;;;;;5111806;28;20426;-68
2021/12/14 09:13:51;;;;;;;0.40;0.40;;;8.70;99.90;;;;;;5097652;28;20468;-68
2021/12/14 09:16:38;;;;;;;0.40;0.40;;;8.70;99.90;;;;;;5073817;28;20474;-68
2021/12/14 09:19:28;;;;;;;0.40;0.40;;;8.70;99.90;;;;;;5100503;28;20474;-68
2021/12/14 09:22:19;;;;;;;0.40;0.40;;;8.80;99.90;;;;;;5110983;28;20432;-68
2021/12/14 09:25:09;;;;;;;1.67;1.57;;;8.90;99.90;;;;;;5111563;28;20413;-68
2021/12/14 09:27:57;;;;;;;0.40;0.40;;;8.90;99.90;;;;;;5109900;28;20547;-68
2021/12/14 09:30:49;;;;;;;0.40;0.40;;;9.00;99.90;;;;;;5085834;28;20532;-68
2021/12/14 09:33:39;;;;;;;0.40;0.40;;;9.00;99.90;;;;;;5084181;28;20497;-68
2021/12/14 09:36:28;;;;;;;0.40;0.40;;;9.10;99.90;;;;;;5081606;28;20466;-68
2021/12/14 09:39:19;;;;;;;0.40;0.40;;;9.00;99.90;;;;;;5078061;28;20418;-68
2021/12/14 09:42:12;;;;;;;0.40;0.40;;;8.90;99.90;;;;;;5104928;28;20425;-68
2021/12/14 09:45:04;;;;;;;0.40;0.37;;;9.00;99.90;;;;;;5080604;28;20429;-67
2021/12/14 09:47:52;;;;;;;1.03;1.03;;;9.00;99.90;;;;;;5111412;28;20464;-68
2021/12/14 09:50:41;;;;;;;0.50;0.50;;;9.10;99.90;;;;;;5111083;28;20429;-67
2021/12/14 09:53:28;;;;;;;0.40;0.40;;;9.00;99.90;;;;;;5100446;28;20453;-67
2021/12/14 09:56:18;;;;;;;1.13;1.13;;;9.00;99.90;;;;;;5090352;28;20458;-68
2021/12/14 09:59:09;;;;;;;0.40;0.40;;;9.00;99.90;;;;;;5091194;28;20569;-67
2021/12/14 10:01:59;;;;;;;0.40;0.40;;;9.00;99.90;;;;;;5091619;28;20995;-68
2021/12/14 10:04:50;;;;;;;3.13;1.73;;;9.10;99.90;;;;;;5113719;28;20483;-68
2021/12/14 10:07:37;;;;;;;8.00;6.33;;;9.00;99.90;;;;;;5094656;28;20496;-68
2021/12/14 10:10:26;;;;;;;0.40;0.40;;;9.10;99.90;;;;;;5120610;28;20429;-68
2021/12/14 10:13:14;;;;;;;0.40;0.40;;;9.10;99.90;;;;;;5122323;28;20452;-68
2021/12/14 10:16:04;;;;;;;0.40;0.40;;;9.10;99.90;;;;;;5135756;28;20452;-68
2021/12/14 10:18:55;;;;;;;0.40;0.40;;;9.20;99.90;;;;;;5113475;28;20434;-69
2021/12/14 10:21:45;;;;;;;0.40;0.40;;;9.20;99.90;;;;;;5113376;28;20470;-68
2021/12/14 10:24:32;;;;;;;0.40;0.40;;;9.20;99.90;;;;;;5093212;28;20430;-68
2021/12/14 10:27:22;;;;;;;0.40;0.40;;;9.20;99.90;;;;;;5096693;28;20452;-68
2021/12/14 10:30:14;;;;;;;0.40;0.40;;;9.20;99.90;;;;;;5093228;28;20470;-68
2021/12/14 10:33:03;;;;;;;0.40;0.40;;;9.30;99.90;;;;;;5094785;28;20433;-68
2021/12/14 10:35:56;;;;;;;0.40;0.40;;;9.40;99.90;;;;;;5094364;28;20518;-68
2021/12/14 10:39:04;;;;;;;0.40;0.40;;;9.50;99.90;;;;;;5090214;28;20433;-67
2021/12/14 10:45:03;;;;;;;0.40;0.40;;;9.60;99.90;;;;;;5092988;28;20793;-67
2021/12/14 10:47:50;;;;;;;0.40;0.40;;;9.70;99.90;;;;;;5094721;28;20903;-67
2021/12/14 10:50:39;;;;;;;0.40;0.40;;;9.80;99.90;;;;;;5094166;28;20426;-68
2021/12/14 10:53:26;;;;;;;0.40;0.40;;;9.80;99.90;;;;;;5094049;28;20430;-69
2021/12/14 10:56:19;;;;;;;0.40;0.40;;;9.70;99.90;;;;;;5094266;28;20981;-69
2021/12/14 10:59:08;;;;;;;0.40;0.40;;;9.70;99.90;;;;;;5088391;28;20977;-68
2021/12/14 11:01:55;;;;;;;0.40;0.40;;;9.70;99.90;;;;;;5087484;28;20429;-68
2021/12/14 11:04:53;;;;;;;0.40;0.40;;;9.60;99.90;;;;;;5088945;28;20457;-67
2021/12/14 11:07:43;;;;;;;0.67;0.57;;;9.70;99.90;;;;;;5078889;28;20450;-67
2021/12/14 11:10:35;;;;;;;0.40;0.40;;;9.60;99.90;;;;;;5094053;28;20442;-67
2021/12/14 11:13:24;;;;;;;0.93;0.93;;;9.60;99.90;;;;;;5097849;28;20509;-67
2021/12/14 11:16:20;;;;;;;0.40;0.40;;;9.50;99.90;;;;;;5093506;28;20555;-67
2021/12/14 11:19:07;;;;;;;1.97;1.73;;;9.70;99.90;;;;;;5093201;28;20438;-67
2021/12/14 11:22:06;;;;;;;2.43;1.00;;;9.50;99.90;;;;;;5092104;28;20469;-67
2021/12/14 11:24:58;;;;;;;0.53;0.53;;;9.50;99.90;;;;;;5088002;28;20450;-67
2021/12/14 11:27:48;;;;;;;0.50;0.50;;;9.50;99.90;;;;;;5086787;28;20795;-67
2021/12/14 11:30:40;;;;;;;0.40;0.40;;;9.60;99.90;;;;;;5088481;28;20443;-67
2021/12/14 11:33:30;;;;;;;0.40;0.40;;;9.60;99.90;;;;;;5090383;28;20785;-68
2021/12/14 11:36:20;;;;;;;0.60;0.60;;;9.60;99.90;;;;;;5089214;28;20454;-68
2021/12/14 11:39:10;;;;;;;0.40;0.40;;;9.80;99.90;;;;;;5093167;28;20472;-67
2021/12/14 11:42:02;;;;;;;0.93;0.67;;;9.90;99.90;;;;;;5080695;28;20510;-67
2021/12/14 11:44:53;;;;;;;0.40;0.40;;;9.70;99.90;;;;;;5092576;28;20437;-67
2021/12/14 11:47:48;;;;;;;0.40;0.40;;;9.70;99.90;;;;;;5094151;28;20430;-67
2021/12/14 11:50:38;;;;;;;0.40;0.40;;;9.70;99.90;;;;;;5094506;28;20941;-68
2021/12/14 11:53:25;;;;;;;0.40;0.40;;;9.80;99.90;;;;;;5087970;28;20447;-67
2021/12/14 11:56:15;;;;;;;4.10;3.90;;;9.80;99.90;;;;;;5084837;28;20553;-67
2021/12/14 11:59:06;;;;;;;0.40;0.40;;;9.90;99.90;;;;;;5087732;28;20836;-67
2021/12/14 12:01:55;;;;;;;0.50;0.50;;;10.00;99.90;;;;;;5085739;28;20434;-67
2021/12/14 12:04:46;;;;;;;0.80;0.77;;;10.00;99.90;;;;;;5090953;28;20422;-67
2021/12/14 12:10:40;;;;;;;6.33;3.00;;;10.00;99.90;;;;;;5079361;28;20426;-68
2021/12/14 12:13:34;;;;;;;3.03;1.10;;;10.00;99.90;;;;;;5093959;28;20437;-67
2021/12/14 12:16:26;;;;;;;0.40;0.40;;;9.90;99.90;;;;;;5090390;28;20462;-67
2021/12/14 12:19:15;;;;;;;0.90;0.90;;;10.00;99.90;;;;;;5083388;28;20427;-68
2021/12/14 12:22:08;;;;;;;0.40;0.40;;;10.00;99.90;;;;;;5080463;28;21319;-68
2021/12/14 12:24:58;;;;;;;0.40;0.40;;;10.00;99.90;;;;;;5087177;28;20456;-68
2021/12/14 12:27:47;;;;;;;0.50;0.50;;;10.10;99.90;;;;;;5098822;28;20450;-67
2021/12/14 12:30:42;;;;;;;0.40;0.40;;;10.00;99.90;;;;;;5098151;28;20445;-68
2021/12/14 12:33:32;;;;;;;4.10;2.00;;;10.00;99.90;;;;;;5096029;28;20466;-67
2021/12/14 12:36:23;;;;;;;0.40;0.40;;;10.00;99.90;;;;;;5089019;28;20523;-68
2021/12/14 12:39:13;;;;;;;0.50;0.50;;;10.00;99.90;;;;;;5093219;28;20488;-67
2021/12/14 12:42:03;;;;;;;0.40;0.40;;;10.00;99.90;;;;;;5092008;28;20808;-68
2021/12/14 12:44:50;;;;;;;2.43;0.90;;;10.10;99.90;;;;;;5091758;28;20499;-68
2021/12/14 12:47:37;;;;;;;7.13;2.40;;;10.10;99.90;;;;;;5093251;28;20446;-68
2021/12/14 12:50:26;;;;;;;0.40;0.40;;;10.10;99.90;;;;;;5077489;28;20441;-67
2021/12/14 12:53:23;;;;;;;0.43;0.43;;;10.10;99.90;;;;;;5104452;28;20427;-68
2021/12/14 12:56:14;;;;;;;0.73;0.47;;;10.10;99.90;;;;;;5077319;28;20515;-68
2021/12/14 12:59:01;;;;;;;0.43;0.43;;;10.00;99.90;;;;;;5091726;28;20930;-68
2021/12/14 13:01:48;;;;;;;0.40;0.40;;;10.00;99.90;;;;;;5090971;28;20449;-68
2021/12/14 13:04:39;;;;;;;0.40;0.40;;;9.80;99.90;;;;;;5091118;28;20433;-68
2021/12/14 13:07:34;;;;;;;0.40;0.40;;;9.90;99.90;;;;;;5078881;28;20471;-68
2021/12/14 13:10:29;;;;;;;0.40;0.40;;;9.90;99.90;;;;;;5083495;28;20822;-68
2021/12/14 13:13:19;;;;;;;0.60;0.60;;;10.00;99.90;;;;;;5084189;28;20431;-68
2021/12/14 13:16:11;;;;;;;2.23;1.73;;;9.90;99.90;;;;;;5084827;28;20466;-68
2021/12/14 13:18:59;;;;;;;0.90;0.90;;;9.80;99.90;;;;;;5086724;28;20438;-68
2021/12/14 13:21:51;;;;;;;2.50;2.23;;;9.70;99.90;;;;;;5091080;28;20429;-68
2021/12/14 13:24:42;;;;;;;2.73;1.10;;;9.50;99.90;;;;;;5088117;28;20805;-68
2021/12/14 13:27:29;;;;;;;2.63;1.63;;;9.30;99.90;;;;;;5091250;28;20453;-68
2021/12/14 13:30:16;;;;;;;0.40;0.40;;;9.10;99.90;;;;;;5084584;28;20860;-68
2021/12/14 13:33:03;;;;;;;2.90;2.40;;;8.90;99.90;;;;;;5091186;28;20437;-67
2021/12/14 13:35:50;;;;;;;0.40;0.40;;;8.70;99.90;;;;;;5090990;28;20528;-67
2021/12/14 13:38:37;;;;;;;0.40;0.40;;;8.60;99.90;;;;;;5077331;28;20426;-67
2021/12/14 13:41:41;;;;;;;0.40;0.40;;;8.50;99.90;;;;;;5092462;28;20975;-67
2021/12/14 13:44:29;;;;;;;0.50;0.50;;;8.40;99.90;;;;;;5088181;28;20429;-67
2021/12/14 13:47:16;;;;;;;0.40;0.40;;;8.60;99.90;;;;;;5083667;28;20442;-68
2021/12/14 13:50:07;;;;;;;2.50;1.63;;;8.40;99.90;;;;;;5082954;28;20429;-68
2021/12/14 13:52:55;;;;;;;0.60;0.60;;;8.40;99.90;;;;;;5089546;28;21003;-69
2021/12/14 13:55:43;;;;;;;0.40;0.40;;;8.30;99.90;;;;;;5085118;28;20463;-68
2021/12/14 13:58:34;;;;;;;0.40;0.40;;;8.30;99.90;;;;;;5085116;28;20462;-68
2021/12/14 14:01:24;;;;;;;0.40;0.40;;;8.30;99.90;;;;;;5085320;28;20430;-68
2021/12/14 14:04:14;;;;;;;0.40;0.40;;;8.40;99.90;;;;;;5089596;28;20476;-68
2021/12/14 14:07:01;;;;;;;1.60;1.30;;;8.50;99.90;;;;;;5091579;28;20450;-68
2021/12/14 14:09:49;;;;;;;0.40;0.40;;;8.50;99.90;;;;;;5088980;28;20506;-68
2021/12/14 14:12:52;;;;;;;0.40;0.40;;;8.40;99.90;;;;;;5090156;28;20422;-68
2021/12/14 14:15:42;;;;;;;3.70;1.37;;;8.40;99.90;;;;;;5082402;28;20498;-68
2021/12/14 14:18:31;;;;;;;0.40;0.40;;;8.30;99.90;;;;;;5090937;28;20434;-68
2021/12/14 14:21:30;;;;;;;5.57;1.47;;;8.30;99.90;;;;;;5087114;28;20937;-68
2021/12/14 14:24:20;;;;;;;0.40;0.40;;;8.20;99.90;;;;;;5089331;28;20437;-68
2021/12/14 14:27:28;;;;;;;1.73;1.63;;;8.20;99.90;;;;;;5091322;28;20449;-68
2021/12/14 14:30:43;;;;;;;0.40;0.40;;;8.30;99.90;;;;;;5090751;28;20437;-68
2021/12/14 14:33:43;;;;;;;0.40;0.40;;;8.20;99.90;;;;;;5081275;28;20638;-67
2021/12/14 14:36:35;;;;;;;0.40;0.40;;;8.20;99.90;;;;;;5090382;28;20485;-68
2021/12/14 14:39:23;;;;;;;0.40;0.40;;;8.30;99.90;;;;;;5090867;28;20939;-67
2021/12/14 14:42:14;;;;;;;0.40;0.40;;;8.30;99.90;;;;;;5091321;28;20427;-67
2021/12/14 14:45:12;;;;;;;0.40;0.40;;;8.40;99.90;;;;;;5091333;28;20938;-67
2021/12/14 14:48:18;;;;;;;0.40;0.40;;;8.30;99.90;;;;;;5091601;28;20989;-67
2021/12/14 14:51:05;;;;;;;0.50;0.50;;;8.40;99.90;;;;;;5093386;28;20418;-67
2021/12/14 14:53:52;;;;;;;2.57;1.03;;;8.50;99.90;;;;;;5088548;28;20430;-67
2021/12/14 14:56:39;;;;;;;0.40;0.40;;;8.40;99.90;;;;;;5093391;28;20474;-67
2021/12/14 14:59:27;;;;;;;1.43;1.10;;;8.40;99.90;;;;;;5092767;28;20465;-67
2021/12/14 15:02:17;;;;;;;0.40;0.40;;;8.30;99.90;;;;;;5091011;28;20430;-67
2021/12/14 15:05:08;;;;;;;0.90;0.90;;;8.40;99.90;;;;;;5078992;28;20418;-67
2021/12/14 15:08:01;;;;;;;0.40;0.40;;;8.40;99.90;;;;;;5083916;28;20530;-67
2021/12/14 15:10:53;;;;;;;1.17;0.63;;;8.30;99.90;;;;;;5091986;28;20454;-68
2021/12/14 15:13:44;;;;;;;0.40;0.40;;;8.50;99.90;;;;;;5085401;28;20433;-68
2021/12/14 15:16:44;;;;;;;0.40;0.40;;;8.20;99.90;;;;;;5094147;28;20474;-67
2021/12/14 15:19:36;;;;;;;0.40;0.40;;;8.20;99.90;;;;;;5082527;28;20418;-68
2021/12/14 15:22:28;;;;;;;0.40;0.40;;;8.30;99.90;;;;;;5083002;28;20443;-67
2021/12/14 15:25:16;;;;;;;2.00;1.10;;;8.30;99.90;;;;;;5088599;28;20417;-67
2021/12/14 15:28:04;;;;;;;0.40;0.40;;;8.30;99.90;;;;;;5097744;28;20429;-67